sensor_id;sensor_type;location;lat;lon;timestamp;temperature;humidity
16437;DHT22;8328;52.206;21.006;2023-05-28T00:01:45;12.00;27.90
16437;DHT22;8328;52.206;21.006;2023-05-28T00:04:12;12.00;28.10
16437;DHT22;8328;52.206;21.006;2023-05-28T00:06:37;12.00;28.20
16437;DHT22;8328;52.206;21.006;2023-05-28T00:09:04;12.00;28.30
16437;DHT22;8328;52.206;21.006;2023-05-28T00:11:30;11.90;28.30
16437;DHT22;8328;52.206;21.006;2023-05-28T00:13:56;11.90;28.50
16437;DHT22;8328;52.206;21.006;2023-05-28T00:16:22;12.40;28.90
16437;DHT22;8328;52.206;21.006;2023-05-28T00:18:48;11.90;28.70
16437;DHT22;8328;52.206;21.006;2023-05-28T00:21:14;10.80;28.00
16437;DHT22;8328;52.206;21.006;2023-05-28T00:23:40;11.80;28.60
16437;DHT22;8328;52.206;21.006;2023-05-28T00:26:07;11.80;28.80
16437;DHT22;8328;52.206;21.006;2023-05-28T00:28:32;11.70;29.00
16437;DHT22;8328;52.206;21.006;2023-05-28T00:30:58;11.70;29.20
16437;DHT22;8328;52.206;21.006;2023-05-28T00:33:24;11.70;29.20
16437;DHT22;8328;52.206;21.006;2023-05-28T00:35:49;11.70;29.30
16437;DHT22;8328;52.206;21.006;2023-05-28T00:38:20;11.70;29.60
16437;DHT22;8328;52.206;21.006;2023-05-28T00:40:46;11.60;29.70
16437;DHT22;8328;52.206;21.006;2023-05-28T00:43:11;11.60;29.80
16437;DHT22;8328;52.206;21.006;2023-05-28T00:45:37;11.60;29.90
16437;DHT22;8328;52.206;21.006;2023-05-28T00:48:03;11.60;30.00
16437;DHT22;8328;52.206;21.006;2023-05-28T00:50:28;11.50;30.10
16437;DHT22;8328;52.206;21.006;2023-05-28T00:52:54;11.60;30.30
16437;DHT22;8328;52.206;21.006;2023-05-28T00:55:21;11.60;30.60
16437;DHT22;8328;52.206;21.006;2023-05-28T00:57:47;11.60;30.40
16437;DHT22;8328;52.206;21.006;2023-05-28T01:00:14;11.50;30.30
16437;DHT22;8328;52.206;21.006;2023-05-28T01:02:41;11.50;30.50
16437;DHT22;8328;52.206;21.006;2023-05-28T01:05:08;11.50;30.60
16437;DHT22;8328;52.206;21.006;2023-05-28T01:07:35;11.40;30.60
16437;DHT22;8328;52.206;21.006;2023-05-28T01:10:02;11.50;30.90
16437;DHT22;8328;52.206;21.006;2023-05-28T01:12:28;11.50;31.00
16437;DHT22;8328;52.206;21.006;2023-05-28T01:14:54;11.50;31.10
16437;DHT22;8328;52.206;21.006;2023-05-28T01:17:21;11.50;31.20
16437;DHT22;8328;52.206;21.006;2023-05-28T01:19:47;11.50;31.40
16437;DHT22;8328;52.206;21.006;2023-05-28T01:22:18;11.40;31.20
16437;DHT22;8328;52.206;21.006;2023-05-28T01:24:49;11.40;31.50
16437;DHT22;8328;52.206;21.006;2023-05-28T01:27:17;11.40;31.70
16437;DHT22;8328;52.206;21.006;2023-05-28T01:29:44;11.40;31.90
16437;DHT22;8328;52.206;21.006;2023-05-28T01:32:09;11.40;31.90
16437;DHT22;8328;52.206;21.006;2023-05-28T01:34:36;11.40;32.00
16437;DHT22;8328;52.206;21.006;2023-05-28T01:37:06;11.40;32.00
16437;DHT22;8328;52.206;21.006;2023-05-28T01:39:44;11.30;32.10
16437;DHT22;8328;52.206;21.006;2023-05-28T01:42:12;11.30;32.30
16437;DHT22;8328;52.206;21.006;2023-05-28T01:44:39;11.30;32.70
16437;DHT22;8328;52.206;21.006;2023-05-28T01:47:07;11.30;33.00
16437;DHT22;8328;52.206;21.006;2023-05-28T01:49:33;11.30;33.30
16437;DHT22;8328;52.206;21.006;2023-05-28T01:52:02;11.30;33.40
16437;DHT22;8328;52.206;21.006;2023-05-28T01:54:28;11.20;33.30
16437;DHT22;8328;52.206;21.006;2023-05-28T01:56:54;11.20;33.40
16437;DHT22;8328;52.206;21.006;2023-05-28T01:59:20;11.10;33.40
16437;DHT22;8328;52.206;21.006;2023-05-28T02:01:46;11.10;33.30
16437;DHT22;8328;52.206;21.006;2023-05-28T02:04:12;11.10;33.40
16437;DHT22;8328;52.206;21.006;2023-05-28T02:06:38;11.10;33.30
16437;DHT22;8328;52.206;21.006;2023-05-28T02:09:06;11.20;33.50
16437;DHT22;8328;52.206;21.006;2023-05-28T02:11:31;11.10;33.70
16437;DHT22;8328;52.206;21.006;2023-05-28T02:13:57;11.10;33.70
16437;DHT22;8328;52.206;21.006;2023-05-28T02:16:23;11.10;33.80
16437;DHT22;8328;52.206;21.006;2023-05-28T02:18:51;11.00;33.60
16437;DHT22;8328;52.206;21.006;2023-05-28T02:21:18;11.00;33.70
16437;DHT22;8328;52.206;21.006;2023-05-28T02:23:45;11.00;34.00
16437;DHT22;8328;52.206;21.006;2023-05-28T02:26:11;11.00;34.20
16437;DHT22;8328;52.206;21.006;2023-05-28T02:28:37;10.90;34.40
16437;DHT22;8328;52.206;21.006;2023-05-28T02:31:03;11.00;34.50
16437;DHT22;8328;52.206;21.006;2023-05-28T02:33:29;11.00;34.40
16437;DHT22;8328;52.206;21.006;2023-05-28T02:35:55;11.00;34.40
16437;DHT22;8328;52.206;21.006;2023-05-28T02:38:21;11.00;34.60
16437;DHT22;8328;52.206;21.006;2023-05-28T02:40:47;11.00;34.70
16437;DHT22;8328;52.206;21.006;2023-05-28T02:43:13;11.00;34.90
16437;DHT22;8328;52.206;21.006;2023-05-28T02:45:38;11.00;35.00
16437;DHT22;8328;52.206;21.006;2023-05-28T02:48:04;11.00;35.20
16437;DHT22;8328;52.206;21.006;2023-05-28T02:50:30;10.80;35.20
16437;DHT22;8328;52.206;21.006;2023-05-28T02:52:56;11.00;35.60
16437;DHT22;8328;52.206;21.006;2023-05-28T02:55:22;11.00;35.80
16437;DHT22;8328;52.206;21.006;2023-05-28T02:57:48;11.00;35.90
16437;DHT22;8328;52.206;21.006;2023-05-28T03:00:14;11.00;35.90
16437;DHT22;8328;52.206;21.006;2023-05-28T03:02:40;11.00;36.90
16437;DHT22;8328;52.206;21.006;2023-05-28T03:05:06;11.00;37.00
16437;DHT22;8328;52.206;21.006;2023-05-28T03:07:33;11.00;36.50
16437;DHT22;8328;52.206;21.006;2023-05-28T03:09:58;11.00;36.60
16437;DHT22;8328;52.206;21.006;2023-05-28T03:12:24;11.10;36.90
16437;DHT22;8328;52.206;21.006;2023-05-28T03:14:50;11.10;36.90
16437;DHT22;8328;52.206;21.006;2023-05-28T03:17:16;11.30;37.20
16437;DHT22;8328;52.206;21.006;2023-05-28T03:19:42;11.10;37.20
16437;DHT22;8328;52.206;21.006;2023-05-28T03:22:07;11.20;37.50
16437;DHT22;8328;52.206;21.006;2023-05-28T03:24:33;11.20;37.50
16437;DHT22;8328;52.206;21.006;2023-05-28T03:27:00;11.30;37.80
16437;DHT22;8328;52.206;21.006;2023-05-28T03:29:26;11.30;37.90
16437;DHT22;8328;52.206;21.006;2023-05-28T03:31:52;11.30;37.60
16437;DHT22;8328;52.206;21.006;2023-05-28T03:34:18;11.40;37.50
16437;DHT22;8328;52.206;21.006;2023-05-28T03:36:44;11.40;37.50
16437;DHT22;8328;52.206;21.006;2023-05-28T03:39:10;11.50;37.50
16437;DHT22;8328;52.206;21.006;2023-05-28T03:41:37;11.50;37.90
16437;DHT22;8328;52.206;21.006;2023-05-28T03:44:03;11.60;37.70
16437;DHT22;8328;52.206;21.006;2023-05-28T03:46:30;11.70;37.70
16437;DHT22;8328;52.206;21.006;2023-05-28T03:48:55;11.70;37.80
16437;DHT22;8328;52.206;21.006;2023-05-28T03:51:22;11.80;37.80
16437;DHT22;8328;52.206;21.006;2023-05-28T03:53:49;11.90;37.70
16437;DHT22;8328;52.206;21.006;2023-05-28T03:56:16;11.90;37.50
16437;DHT22;8328;52.206;21.006;2023-05-28T03:58:42;12.00;37.40
16437;DHT22;8328;52.206;21.006;2023-05-28T04:01:07;12.10;37.20
16437;DHT22;8328;52.206;21.006;2023-05-28T04:03:35;12.20;37.30
16437;DHT22;8328;52.206;21.006;2023-05-28T04:06:00;12.30;37.20
16437;DHT22;8328;52.206;21.006;2023-05-28T04:08:28;12.40;37.00
16437;DHT22;8328;52.206;21.006;2023-05-28T04:10:53;12.60;36.70
16437;DHT22;8328;52.206;21.006;2023-05-28T04:13:19;12.70;36.30
16437;DHT22;8328;52.206;21.006;2023-05-28T04:15:45;12.80;36.00
16437;DHT22;8328;52.206;21.006;2023-05-28T04:18:11;12.90;35.70
16437;DHT22;8328;52.206;21.006;2023-05-28T04:20:37;13.00;35.50
16437;DHT22;8328;52.206;21.006;2023-05-28T04:23:03;13.20;35.30
16437;DHT22;8328;52.206;21.006;2023-05-28T04:25:29;13.30;34.90
16437;DHT22;8328;52.206;21.006;2023-05-28T04:27:55;13.40;34.60
16437;DHT22;8328;52.206;21.006;2023-05-28T04:30:22;13.60;34.10
16437;DHT22;8328;52.206;21.006;2023-05-28T04:32:49;13.70;33.80
16437;DHT22;8328;52.206;21.006;2023-05-28T04:35:19;13.90;32.60
16437;DHT22;8328;52.206;21.006;2023-05-28T04:37:45;14.10;32.00
16437;DHT22;8328;52.206;21.006;2023-05-28T04:40:11;14.30;31.70
16437;DHT22;8328;52.206;21.006;2023-05-28T04:42:40;14.40;30.70
16437;DHT22;8328;52.206;21.006;2023-05-28T04:45:10;14.60;30.10
16437;DHT22;8328;52.206;21.006;2023-05-28T04:47:36;14.70;30.00
16437;DHT22;8328;52.206;21.006;2023-05-28T04:50:03;15.00;29.70
16437;DHT22;8328;52.206;21.006;2023-05-28T04:52:30;15.20;29.40
16437;DHT22;8328;52.206;21.006;2023-05-28T04:55:04;15.30;28.90
16437;DHT22;8328;52.206;21.006;2023-05-28T04:57:30;15.40;28.20
16437;DHT22;8328;52.206;21.006;2023-05-28T04:59:56;15.30;28.20
16437;DHT22;8328;52.206;21.006;2023-05-28T05:02:21;15.40;28.40
16437;DHT22;8328;52.206;21.006;2023-05-28T05:04:48;15.50;28.70
16437;DHT22;8328;52.206;21.006;2023-05-28T05:07:14;15.60;28.60
16437;DHT22;8328;52.206;21.006;2023-05-28T05:09:40;15.80;28.50
16437;DHT22;8328;52.206;21.006;2023-05-28T05:12:07;15.90;28.40
16437;DHT22;8328;52.206;21.006;2023-05-28T05:14:34;16.10;28.10
16437;DHT22;8328;52.206;21.006;2023-05-28T05:17:00;16.30;27.50
16437;DHT22;8328;52.206;21.006;2023-05-28T05:19:26;16.50;26.90
16437;DHT22;8328;52.206;21.006;2023-05-28T05:21:52;16.70;26.50
16437;DHT22;8328;52.206;21.006;2023-05-28T05:24:18;16.90;26.00
16437;DHT22;8328;52.206;21.006;2023-05-28T05:26:44;17.00;25.20
16437;DHT22;8328;52.206;21.006;2023-05-28T05:29:10;17.00;25.10
16437;DHT22;8328;52.206;21.006;2023-05-28T05:31:36;17.20;25.10
16437;DHT22;8328;52.206;21.006;2023-05-28T05:34:01;17.20;24.90
16437;DHT22;8328;52.206;21.006;2023-05-28T05:36:27;17.20;25.00
16437;DHT22;8328;52.206;21.006;2023-05-28T05:38:53;17.30;24.70
16437;DHT22;8328;52.206;21.006;2023-05-28T05:41:19;17.30;24.50
16437;DHT22;8328;52.206;21.006;2023-05-28T05:43:44;17.40;24.80
16437;DHT22;8328;52.206;21.006;2023-05-28T05:46:10;17.50;24.80
16437;DHT22;8328;52.206;21.006;2023-05-28T05:48:36;17.50;24.20
16437;DHT22;8328;52.206;21.006;2023-05-28T05:51:02;17.70;24.00
16437;DHT22;8328;52.206;21.006;2023-05-28T05:53:28;17.80;23.90
16437;DHT22;8328;52.206;21.006;2023-05-28T05:55:54;17.90;23.80
16437;DHT22;8328;52.206;21.006;2023-05-28T05:58:20;17.70;24.10
16437;DHT22;8328;52.206;21.006;2023-05-28T06:00:46;17.90;24.60
16437;DHT22;8328;52.206;21.006;2023-05-28T06:03:16;17.90;24.40
16437;DHT22;8328;52.206;21.006;2023-05-28T06:05:41;18.00;24.40
16437;DHT22;8328;52.206;21.006;2023-05-28T06:08:07;18.00;23.70
16437;DHT22;8328;52.206;21.006;2023-05-28T06:10:36;18.10;24.70
16437;DHT22;8328;52.206;21.006;2023-05-28T06:13:02;17.20;24.30
16437;DHT22;8328;52.206;21.006;2023-05-28T06:15:29;18.20;24.40
16437;DHT22;8328;52.206;21.006;2023-05-28T06:17:56;18.40;26.40
16437;DHT22;8328;52.206;21.006;2023-05-28T06:20:22;18.60;25.50
16437;DHT22;8328;52.206;21.006;2023-05-28T06:22:48;18.70;24.80
16437;DHT22;8328;52.206;21.006;2023-05-28T06:25:14;18.80;24.00
16437;DHT22;8328;52.206;21.006;2023-05-28T06:27:40;17.50;22.80
16437;DHT22;8328;52.206;21.006;2023-05-28T06:30:07;18.70;23.30
16437;DHT22;8328;52.206;21.006;2023-05-28T06:32:33;18.40;23.50
16437;DHT22;8328;52.206;21.006;2023-05-28T06:35:02;18.40;24.10
16437;DHT22;8328;52.206;21.006;2023-05-28T06:37:28;18.50;24.30
16437;DHT22;8328;52.206;21.006;2023-05-28T06:39:56;18.50;24.00
16437;DHT22;8328;52.206;21.006;2023-05-28T06:42:22;18.70;24.20
16437;DHT22;8328;52.206;21.006;2023-05-28T06:44:48;18.80;23.60
16437;DHT22;8328;52.206;21.006;2023-05-28T06:47:14;19.00;23.60
16437;DHT22;8328;52.206;21.006;2023-05-28T06:49:40;20.70;24.40
16437;DHT22;8328;52.206;21.006;2023-05-28T06:52:09;19.40;23.00
16437;DHT22;8328;52.206;21.006;2023-05-28T06:54:35;19.50;21.40
16437;DHT22;8328;52.206;21.006;2023-05-28T06:57:00;19.60;21.90
16437;DHT22;8328;52.206;21.006;2023-05-28T06:59:26;19.70;21.50
16437;DHT22;8328;52.206;21.006;2023-05-28T07:01:52;19.70;21.30
16437;DHT22;8328;52.206;21.006;2023-05-28T07:04:18;19.70;20.90
16437;DHT22;8328;52.206;21.006;2023-05-28T07:06:44;19.60;21.10
16437;DHT22;8328;52.206;21.006;2023-05-28T07:09:09;19.60;21.10
16437;DHT22;8328;52.206;21.006;2023-05-28T07:11:36;19.60;20.80
16437;DHT22;8328;52.206;21.006;2023-05-28T07:14:02;19.70;20.90
16437;DHT22;8328;52.206;21.006;2023-05-28T07:16:27;19.60;20.60
16437;DHT22;8328;52.206;21.006;2023-05-28T07:18:53;19.60;20.50
16437;DHT22;8328;52.206;21.006;2023-05-28T07:21:20;19.80;19.90
16437;DHT22;8328;52.206;21.006;2023-05-28T07:23:45;19.90;19.70
16437;DHT22;8328;52.206;21.006;2023-05-28T07:26:11;19.90;19.00
16437;DHT22;8328;52.206;21.006;2023-05-28T07:28:40;20.00;19.30
16437;DHT22;8328;52.206;21.006;2023-05-28T07:31:06;20.10;18.90
16437;DHT22;8328;52.206;21.006;2023-05-28T07:33:32;20.10;18.50
16437;DHT22;8328;52.206;21.006;2023-05-28T07:35:57;20.10;17.70
16437;DHT22;8328;52.206;21.006;2023-05-28T07:38:23;20.10;17.60
16437;DHT22;8328;52.206;21.006;2023-05-28T07:40:49;20.10;16.70
16437;DHT22;8328;52.206;21.006;2023-05-28T07:43:15;20.10;16.80
16437;DHT22;8328;52.206;21.006;2023-05-28T07:45:41;20.20;16.60
16437;DHT22;8328;52.206;21.006;2023-05-28T07:48:07;20.50;17.40
16437;DHT22;8328;52.206;21.006;2023-05-28T07:50:35;20.40;16.00
16437;DHT22;8328;52.206;21.006;2023-05-28T07:53:01;20.50;16.10
16437;DHT22;8328;52.206;21.006;2023-05-28T07:55:27;20.60;16.30
16437;DHT22;8328;52.206;21.006;2023-05-28T07:57:56;20.40;15.60
16437;DHT22;8328;52.206;21.006;2023-05-28T08:00:26;20.50;15.60
16437;DHT22;8328;52.206;21.006;2023-05-28T08:02:53;20.50;15.70
16437;DHT22;8328;52.206;21.006;2023-05-28T08:05:21;20.50;15.80
16437;DHT22;8328;52.206;21.006;2023-05-28T08:07:47;20.50;15.60
16437;DHT22;8328;52.206;21.006;2023-05-28T08:10:13;20.40;15.20
16437;DHT22;8328;52.206;21.006;2023-05-28T08:12:39;20.40;15.30
16437;DHT22;8328;52.206;21.006;2023-05-28T08:15:05;20.30;15.20
16437;DHT22;8328;52.206;21.006;2023-05-28T08:17:31;20.50;15.90
16437;DHT22;8328;52.206;21.006;2023-05-28T08:19:57;20.50;15.90
16437;DHT22;8328;52.206;21.006;2023-05-28T08:22:23;20.50;15.40
16437;DHT22;8328;52.206;21.006;2023-05-28T08:24:49;20.50;16.10
16437;DHT22;8328;52.206;21.006;2023-05-28T08:27:15;20.50;15.80
16437;DHT22;8328;52.206;21.006;2023-05-28T08:29:41;20.50;15.80
16437;DHT22;8328;52.206;21.006;2023-05-28T08:32:07;20.50;16.20
16437;DHT22;8328;52.206;21.006;2023-05-28T08:34:32;20.60;16.10
16437;DHT22;8328;52.206;21.006;2023-05-28T08:37:01;20.60;15.40
16437;DHT22;8328;52.206;21.006;2023-05-28T08:39:27;20.70;15.90
16437;DHT22;8328;52.206;21.006;2023-05-28T08:41:53;20.80;16.10
16437;DHT22;8328;52.206;21.006;2023-05-28T08:44:22;20.80;15.90
16437;DHT22;8328;52.206;21.006;2023-05-28T08:46:48;20.80;15.70
16437;DHT22;8328;52.206;21.006;2023-05-28T08:49:17;20.80;15.50
16437;DHT22;8328;52.206;21.006;2023-05-28T08:51:45;20.90;15.30
16437;DHT22;8328;52.206;21.006;2023-05-28T08:54:14;20.80;15.40
16437;DHT22;8328;52.206;21.006;2023-05-28T08:56:40;20.90;15.80
16437;DHT22;8328;52.206;21.006;2023-05-28T08:59:08;21.10;15.80
16437;DHT22;8328;52.206;21.006;2023-05-28T09:01:36;21.10;15.30
16437;DHT22;8328;52.206;21.006;2023-05-28T09:04:03;21.10;14.80
16437;DHT22;8328;52.206;21.006;2023-05-28T09:06:31;21.20;15.00
16437;DHT22;8328;52.206;21.006;2023-05-28T09:08:57;21.20;14.80
16437;DHT22;8328;52.206;21.006;2023-05-28T09:11:24;21.30;15.00
16437;DHT22;8328;52.206;21.006;2023-05-28T09:13:50;21.20;14.60
16437;DHT22;8328;52.206;21.006;2023-05-28T09:16:23;21.40;14.90
16437;DHT22;8328;52.206;21.006;2023-05-28T09:19:01;21.50;14.60
16437;DHT22;8328;52.206;21.006;2023-05-28T09:21:28;21.60;14.50
16437;DHT22;8328;52.206;21.006;2023-05-28T09:23:53;21.60;14.60
16437;DHT22;8328;52.206;21.006;2023-05-28T09:26:19;21.70;14.00
16437;DHT22;8328;52.206;21.006;2023-05-28T09:28:45;21.80;14.30
16437;DHT22;8328;52.206;21.006;2023-05-28T09:31:11;21.90;14.00
16437;DHT22;8328;52.206;21.006;2023-05-28T09:33:47;22.00;13.70
16437;DHT22;8328;52.206;21.006;2023-05-28T09:36:17;22.00;13.50
16437;DHT22;8328;52.206;21.006;2023-05-28T09:38:43;22.20;13.20
16437;DHT22;8328;52.206;21.006;2023-05-28T09:43:46;22.50;13.30
16437;DHT22;8328;52.206;21.006;2023-05-28T09:46:15;22.60;13.30
16437;DHT22;8328;52.206;21.006;2023-05-28T09:48:41;22.80;13.10
16437;DHT22;8328;52.206;21.006;2023-05-28T09:51:07;22.80;13.20
16437;DHT22;8328;52.206;21.006;2023-05-28T09:53:40;22.90;13.30
16437;DHT22;8328;52.206;21.006;2023-05-28T09:56:08;22.60;12.80
16437;DHT22;8328;52.206;21.006;2023-05-28T09:58:37;22.90;12.90
16437;DHT22;8328;52.206;21.006;2023-05-28T10:01:13;23.00;12.80
16437;DHT22;8328;52.206;21.006;2023-05-28T10:03:56;23.00;12.30
16437;DHT22;8328;52.206;21.006;2023-05-28T10:06:43;23.00;12.50
16437;DHT22;8328;52.206;21.006;2023-05-28T10:09:14;23.10;12.60
16437;DHT22;8328;52.206;21.006;2023-05-28T10:11:43;23.20;12.70
16437;DHT22;8328;52.206;21.006;2023-05-28T10:14:10;23.30;12.40
16437;DHT22;8328;52.206;21.006;2023-05-28T10:16:37;23.40;11.90
16437;DHT22;8328;52.206;21.006;2023-05-28T10:19:03;23.40;11.50
16437;DHT22;8328;52.206;21.006;2023-05-28T10:21:29;23.30;11.20
16437;DHT22;8328;52.206;21.006;2023-05-28T10:23:56;23.20;11.60
16437;DHT22;8328;52.206;21.006;2023-05-28T10:26:23;23.20;12.30
16437;DHT22;8328;52.206;21.006;2023-05-28T10:28:54;23.20;11.70
16437;DHT22;8328;52.206;21.006;2023-05-28T10:31:21;23.30;11.70
16437;DHT22;8328;52.206;21.006;2023-05-28T10:33:47;23.20;12.10
16437;DHT22;8328;52.206;21.006;2023-05-28T10:36:15;23.40;11.90
16437;DHT22;8328;52.206;21.006;2023-05-28T10:38:46;23.50;11.70
16437;DHT22;8328;52.206;21.006;2023-05-28T10:41:22;23.70;11.50
16437;DHT22;8328;52.206;21.006;2023-05-28T10:43:49;24.00;10.80
16437;DHT22;8328;52.206;21.006;2023-05-28T10:51:50;24.60;11.20
16437;DHT22;8328;52.206;21.006;2023-05-28T10:59:48;25.30;10.10
16437;DHT22;8328;52.206;21.006;2023-05-28T11:02:28;25.80;9.60
16437;DHT22;8328;52.206;21.006;2023-05-28T11:04:59;26.00;9.40
16437;DHT22;8328;52.206;21.006;2023-05-28T11:07:33;26.20;9.20
16437;DHT22;8328;52.206;21.006;2023-05-28T11:10:00;26.60;8.30
16437;DHT22;8328;52.206;21.006;2023-05-28T11:12:28;26.80;7.80
16437;DHT22;8328;52.206;21.006;2023-05-28T11:14:54;27.00;7.30
16437;DHT22;8328;52.206;21.006;2023-05-28T11:17:26;27.40;7.20
16437;DHT22;8328;52.206;21.006;2023-05-28T11:19:54;27.70;6.70
16437;DHT22;8328;52.206;21.006;2023-05-28T11:22:20;27.90;6.80
16437;DHT22;8328;52.206;21.006;2023-05-28T11:25:06;28.30;6.50
16437;DHT22;8328;52.206;21.006;2023-05-28T11:27:33;28.50;5.90
16437;DHT22;8328;52.206;21.006;2023-05-28T11:30:10;28.80;5.70
16437;DHT22;8328;52.206;21.006;2023-05-28T11:32:38;29.10;5.30
16437;DHT22;8328;52.206;21.006;2023-05-28T11:35:04;29.40;4.70
16437;DHT22;8328;52.206;21.006;2023-05-28T11:37:35;29.40;4.40
16437;DHT22;8328;52.206;21.006;2023-05-28T11:40:03;29.40;4.60
16437;DHT22;8328;52.206;21.006;2023-05-28T11:42:35;29.70;4.40
16437;DHT22;8328;52.206;21.006;2023-05-28T11:45:02;30.20;4.30
16437;DHT22;8328;52.206;21.006;2023-05-28T11:47:34;30.40;4.00
16437;DHT22;8328;52.206;21.006;2023-05-28T11:50:11;30.60;3.00
16437;DHT22;8328;52.206;21.006;2023-05-28T11:52:37;30.80;3.20
16437;DHT22;8328;52.206;21.006;2023-05-28T11:55:03;31.00;3.00
16437;DHT22;8328;52.206;21.006;2023-05-28T11:57:33;31.50;2.80
16437;DHT22;8328;52.206;21.006;2023-05-28T12:00:04;31.80;2.70
16437;DHT22;8328;52.206;21.006;2023-05-28T12:05:09;32.30;1.10
16437;DHT22;8328;52.206;21.006;2023-05-28T12:07:35;32.20;1.10
16437;DHT22;8328;52.206;21.006;2023-05-28T12:10:07;32.30;1.40
16437;DHT22;8328;52.206;21.006;2023-05-28T12:12:43;32.50;1.60
16437;DHT22;8328;52.206;21.006;2023-05-28T12:15:10;32.50;1.00
16437;DHT22;8328;52.206;21.006;2023-05-28T12:17:37;32.20;1.00
16437;DHT22;8328;52.206;21.006;2023-05-28T12:25:28;32.80;1.00
16437;DHT22;8328;52.206;21.006;2023-05-28T12:27:53;33.20;1.00
16437;DHT22;8328;52.206;21.006;2023-05-28T12:30:19;34.00;1.00
16437;DHT22;8328;52.206;21.006;2023-05-28T12:32:45;33.50;1.00
16437;DHT22;8328;52.206;21.006;2023-05-28T12:35:12;35.30;1.00
16437;DHT22;8328;52.206;21.006;2023-05-28T12:37:38;35.50;1.00
16437;DHT22;8328;52.206;21.006;2023-05-28T12:40:04;35.90;1.00
16437;DHT22;8328;52.206;21.006;2023-05-28T12:42:32;36.50;1.00
16437;DHT22;8328;52.206;21.006;2023-05-28T12:44:57;36.50;1.00
16437;DHT22;8328;52.206;21.006;2023-05-28T12:47:23;37.00;1.00
16437;DHT22;8328;52.206;21.006;2023-05-28T12:49:49;37.00;1.00
16437;DHT22;8328;52.206;21.006;2023-05-28T12:52:15;37.20;1.00
16437;DHT22;8328;52.206;21.006;2023-05-28T12:54:41;37.90;1.00
16437;DHT22;8328;52.206;21.006;2023-05-28T12:57:07;38.40;1.00
16437;DHT22;8328;52.206;21.006;2023-05-28T12:59:32;38.70;1.00
16437;DHT22;8328;52.206;21.006;2023-05-28T13:01:58;38.90;1.00
16437;DHT22;8328;52.206;21.006;2023-05-28T13:04:24;39.00;1.00
16437;DHT22;8328;52.206;21.006;2023-05-28T13:06:50;39.00;1.00
16437;DHT22;8328;52.206;21.006;2023-05-28T13:09:19;38.90;1.00
16437;DHT22;8328;52.206;21.006;2023-05-28T13:11:45;38.80;1.00
16437;DHT22;8328;52.206;21.006;2023-05-28T13:14:11;39.30;1.00
16437;DHT22;8328;52.206;21.006;2023-05-28T13:16:37;39.70;1.00
16437;DHT22;8328;52.206;21.006;2023-05-28T13:19:06;40.00;1.00
16437;DHT22;8328;52.206;21.006;2023-05-28T13:21:32;40.00;1.00
16437;DHT22;8328;52.206;21.006;2023-05-28T13:24:04;40.10;1.00
16437;DHT22;8328;52.206;21.006;2023-05-28T13:26:32;40.50;1.00
16437;DHT22;8328;52.206;21.006;2023-05-28T13:28:59;40.20;1.00
16437;DHT22;8328;52.206;21.006;2023-05-28T13:31:25;40.60;1.00
16437;DHT22;8328;52.206;21.006;2023-05-28T13:33:50;40.30;1.00
16437;DHT22;8328;52.206;21.006;2023-05-28T13:36:17;40.60;1.00
16437;DHT22;8328;52.206;21.006;2023-05-28T13:38:43;40.90;1.00
16437;DHT22;8328;52.206;21.006;2023-05-28T13:41:10;40.80;1.00
16437;DHT22;8328;52.206;21.006;2023-05-28T13:43:37;40.90;1.00
16437;DHT22;8328;52.206;21.006;2023-05-28T13:46:04;40.70;1.00
16437;DHT22;8328;52.206;21.006;2023-05-28T13:48:33;40.90;1.00
16437;DHT22;8328;52.206;21.006;2023-05-28T13:51:00;41.10;1.00
16437;DHT22;8328;52.206;21.006;2023-05-28T13:53:29;41.50;1.00
16437;DHT22;8328;52.206;21.006;2023-05-28T13:55:56;41.60;1.00
16437;DHT22;8328;52.206;21.006;2023-05-28T13:58:23;41.80;1.00
16437;DHT22;8328;52.206;21.006;2023-05-28T14:00:49;42.40;1.00
16437;DHT22;8328;52.206;21.006;2023-05-28T14:03:15;42.40;1.00
16437;DHT22;8328;52.206;21.006;2023-05-28T14:05:43;42.50;1.00
16437;DHT22;8328;52.206;21.006;2023-05-28T14:08:12;42.10;1.00
16437;DHT22;8328;52.206;21.006;2023-05-28T14:10:40;42.50;1.00
16437;DHT22;8328;52.206;21.006;2023-05-28T14:13:06;42.80;1.00
16437;DHT22;8328;52.206;21.006;2023-05-28T14:15:32;43.30;1.00
16437;DHT22;8328;52.206;21.006;2023-05-28T14:17:59;43.20;1.00
16437;DHT22;8328;52.206;21.006;2023-05-28T14:20:24;42.90;1.00
16437;DHT22;8328;52.206;21.006;2023-05-28T14:22:50;42.30;1.00
16437;DHT22;8328;52.206;21.006;2023-05-28T14:25:16;42.00;1.00
16437;DHT22;8328;52.206;21.006;2023-05-28T14:27:42;42.10;1.00
16437;DHT22;8328;52.206;21.006;2023-05-28T14:30:08;42.40;1.00
16437;DHT22;8328;52.206;21.006;2023-05-28T14:32:34;42.40;1.00
16437;DHT22;8328;52.206;21.006;2023-05-28T14:35:00;42.30;1.00
16437;DHT22;8328;52.206;21.006;2023-05-28T14:37:26;42.50;1.00
16437;DHT22;8328;52.206;21.006;2023-05-28T14:39:52;42.80;1.00
16437;DHT22;8328;52.206;21.006;2023-05-28T14:42:18;43.10;1.00
16437;DHT22;8328;52.206;21.006;2023-05-28T14:44:44;43.90;1.00
16437;DHT22;8328;52.206;21.006;2023-05-28T14:47:10;44.10;1.00
16437;DHT22;8328;52.206;21.006;2023-05-28T14:49:36;44.30;1.00
16437;DHT22;8328;52.206;21.006;2023-05-28T14:52:21;44.60;1.00
16437;DHT22;8328;52.206;21.006;2023-05-28T14:54:48;44.50;1.00
16437;DHT22;8328;52.206;21.006;2023-05-28T14:57:13;44.80;1.00
16437;DHT22;8328;52.206;21.006;2023-05-28T14:59:39;44.60;1.00
16437;DHT22;8328;52.206;21.006;2023-05-28T15:02:05;44.10;1.00
16437;DHT22;8328;52.206;21.006;2023-05-28T15:04:31;42.20;1.00
16437;DHT22;8328;52.206;21.006;2023-05-28T15:06:57;40.00;1.00
16437;DHT22;8328;52.206;21.006;2023-05-28T15:09:26;38.00;1.00
16437;DHT22;8328;52.206;21.006;2023-05-28T15:11:52;36.30;1.00
16437;DHT22;8328;52.206;21.006;2023-05-28T15:14:17;35.00;1.00
16437;DHT22;8328;52.206;21.006;2023-05-28T15:16:44;33.80;1.00
16437;DHT22;8328;52.206;21.006;2023-05-28T15:19:11;33.00;1.00
16437;DHT22;8328;52.206;21.006;2023-05-28T15:21:38;32.20;1.00
16437;DHT22;8328;52.206;21.006;2023-05-28T15:24:04;31.40;1.00
16437;DHT22;8328;52.206;21.006;2023-05-28T15:26:30;30.70;1.00
16437;DHT22;8328;52.206;21.006;2023-05-28T15:28:57;30.30;1.00
16437;DHT22;8328;52.206;21.006;2023-05-28T15:31:23;29.70;1.00
16437;DHT22;8328;52.206;21.006;2023-05-28T15:33:51;29.40;1.00
16437;DHT22;8328;52.206;21.006;2023-05-28T15:36:17;28.90;1.00
16437;DHT22;8328;52.206;21.006;2023-05-28T15:38:43;28.70;1.00
16437;DHT22;8328;52.206;21.006;2023-05-28T15:41:10;28.70;1.00
16437;DHT22;8328;52.206;21.006;2023-05-28T15:43:36;28.40;1.00
16437;DHT22;8328;52.206;21.006;2023-05-28T15:46:02;28.20;1.00
16437;DHT22;8328;52.206;21.006;2023-05-28T15:48:28;28.00;1.00
16437;DHT22;8328;52.206;21.006;2023-05-28T15:50:54;27.90;1.00
16437;DHT22;8328;52.206;21.006;2023-05-28T15:53:25;27.90;1.00
16437;DHT22;8328;52.206;21.006;2023-05-28T15:55:52;27.70;1.00